createdAt,value
2023-03-26T00:01:41.618Z,9.23
2023-03-26T00:04:09.298Z,9.29
2023-03-26T00:06:39.982Z,9.35
2023-03-26T00:09:09.331Z,9.38
2023-03-26T00:11:36.890Z,9.40
2023-03-26T00:14:05.384Z,9.38
2023-03-26T00:16:35.288Z,9.32
2023-03-26T00:19:04.058Z,9.35
2023-03-26T00:21:32.486Z,9.35
2023-03-26T00:24:04.385Z,9.35
2023-03-26T00:26:33.542Z,9.34
2023-03-26T00:29:03.377Z,9.30
2023-03-26T00:31:31.734Z,9.22
2023-03-26T00:34:03.502Z,9.21
2023-03-26T00:36:31.089Z,9.17
2023-03-26T00:38:58.691Z,9.16
2023-03-26T00:41:30.980Z,9.18
2023-03-26T00:44:00.192Z,9.18
2023-03-26T00:46:29.270Z,9.20
2023-03-26T00:48:58.799Z,9.22
2023-03-26T00:51:29.567Z,9.24
2023-03-26T00:53:58.132Z,9.30
2023-03-26T00:56:26.136Z,9.29
2023-03-26T00:58:53.685Z,9.27
2023-03-26T01:01:27.724Z,9.29
2023-03-26T01:04:08.364Z,9.28
2023-03-26T01:06:42.048Z,9.30
2023-03-26T01:09:15.821Z,9.27
2023-03-26T01:11:43.804Z,9.26
2023-03-26T01:14:13.926Z,9.26
2023-03-26T01:16:44.900Z,9.29
2023-03-26T01:19:21.149Z,9.33
2023-03-26T01:21:50.042Z,9.30
2023-03-26T01:24:18.904Z,9.28
2023-03-26T01:26:59.344Z,9.28
2023-03-26T01:29:33.417Z,9.28
2023-03-26T01:32:09.712Z,9.28
2023-03-26T01:34:49.685Z,9.31
2023-03-26T01:37:24.707Z,9.33
2023-03-26T01:39:58.274Z,9.33
2023-03-26T01:42:38.126Z,9.29
2023-03-26T01:45:11.904Z,9.28
2023-03-26T01:47:41.876Z,9.22
2023-03-26T01:50:10.519Z,9.24
2023-03-26T01:52:38.207Z,9.25
2023-03-26T01:55:11.757Z,9.19
2023-03-26T01:57:53.468Z,9.16
2023-03-26T02:00:28.566Z,9.17
2023-03-26T02:03:05.882Z,9.20
2023-03-26T02:05:37.506Z,9.24
2023-03-26T02:08:12.519Z,9.24
2023-03-26T02:10:44.175Z,9.19
2023-03-26T02:13:12.438Z,9.15
2023-03-26T02:15:40.929Z,9.17
2023-03-26T02:18:10.858Z,9.19
2023-03-26T02:20:38.459Z,9.21
2023-03-26T02:23:06.730Z,9.22
2023-03-26T02:25:35.774Z,9.21
2023-03-26T02:28:05.859Z,9.17
2023-03-26T02:30:33.672Z,9.11
2023-03-26T02:33:01.236Z,9.00
2023-03-26T02:35:28.835Z,8.93
2023-03-26T02:37:56.774Z,8.92
2023-03-26T02:40:24.995Z,8.86
2023-03-26T02:42:52.474Z,8.82
2023-03-26T02:45:21.329Z,8.79
2023-03-26T02:47:51.028Z,8.78
2023-03-26T02:50:19.266Z,8.70
2023-03-26T02:52:49.030Z,8.64
2023-03-26T02:55:16.586Z,8.62
2023-03-26T02:57:44.158Z,8.59
2023-03-26T03:00:17.329Z,8.56
2023-03-26T03:02:48.091Z,8.48
2023-03-26T03:05:15.990Z,8.39
2023-03-26T03:07:43.499Z,8.38
2023-03-26T03:10:13.755Z,8.40
2023-03-26T03:12:41.651Z,8.36
2023-03-26T03:15:10.714Z,8.26
2023-03-26T03:17:38.317Z,8.25
2023-03-26T03:20:09.345Z,8.22
2023-03-26T03:22:37.188Z,8.15
2023-03-26T03:25:05.596Z,8.10
2023-03-26T03:27:33.078Z,8.04
2023-03-26T03:30:00.606Z,8.03
2023-03-26T03:32:28.565Z,7.99
2023-03-26T03:34:56.426Z,7.95
2023-03-26T03:37:26.284Z,7.86
2023-03-26T03:39:53.914Z,7.83
2023-03-26T03:42:21.487Z,7.80
2023-03-26T03:44:48.966Z,7.71
2023-03-26T03:47:16.518Z,7.61
2023-03-26T03:49:43.998Z,7.59
2023-03-26T03:52:11.479Z,7.60
2023-03-26T03:54:40.334Z,7.58
2023-03-26T03:57:07.889Z,7.62
2023-03-26T03:59:35.414Z,7.67
2023-03-26T04:02:03.220Z,7.72
2023-03-26T04:04:30.758Z,7.73
2023-03-26T04:06:58.312Z,7.73
2023-03-26T04:09:25.875Z,7.70
2023-03-26T04:11:54.736Z,7.66
2023-03-26T04:14:22.240Z,7.64
2023-03-26T04:16:50.006Z,7.67
2023-03-26T04:19:17.512Z,7.66
2023-03-26T04:21:45.731Z,7.65
2023-03-26T04:24:13.586Z,7.64
2023-03-26T04:26:41.559Z,7.61
2023-03-26T04:29:16.896Z,7.57
2023-03-26T04:31:44.963Z,7.51
2023-03-26T04:34:24.013Z,7.47
2023-03-26T04:36:54.352Z,7.45
2023-03-26T04:39:22.806Z,7.49
2023-03-26T04:41:50.416Z,7.54
2023-03-26T04:44:22.384Z,7.60
2023-03-26T04:46:50.068Z,7.64
2023-03-26T04:49:17.632Z,7.59
2023-03-26T04:51:46.725Z,7.59
2023-03-26T04:54:16.110Z,7.60
2023-03-26T04:56:48.113Z,7.55
2023-03-26T04:59:20.370Z,7.52
2023-03-26T05:01:47.902Z,7.45
2023-03-26T05:04:15.493Z,7.38
2023-03-26T05:06:43.414Z,7.34
2023-03-26T05:09:11.141Z,7.38
2023-03-26T05:11:38.714Z,7.44
2023-03-26T05:14:06.275Z,7.43
2023-03-26T05:16:35.915Z,7.40
2023-03-26T05:19:03.505Z,7.39
2023-03-26T05:21:31.026Z,7.38
2023-03-26T05:23:58.631Z,7.34
2023-03-26T05:26:26.337Z,7.30
2023-03-26T05:28:53.917Z,7.38
2023-03-26T05:31:22.234Z,7.47
2023-03-26T05:33:51.780Z,7.52
2023-03-26T05:36:19.390Z,7.53
2023-03-26T05:38:49.439Z,7.52
2023-03-26T05:41:18.120Z,7.51
2023-03-26T05:43:47.166Z,7.49
2023-03-26T05:46:15.388Z,7.50
2023-03-26T05:48:42.931Z,7.51
2023-03-26T05:51:12.350Z,7.50
2023-03-26T05:53:39.928Z,7.46
2023-03-26T05:56:08.206Z,7.36
2023-03-26T05:58:36.861Z,7.18
2023-03-26T06:01:08.491Z,6.99
2023-03-26T06:03:38.291Z,6.85
2023-03-26T06:06:09.213Z,6.76
2023-03-26T06:08:39.229Z,6.70
2023-03-26T06:11:08.337Z,6.66
2023-03-26T06:13:36.069Z,6.72
2023-03-26T06:16:03.739Z,6.77
2023-03-26T06:18:31.430Z,6.84
2023-03-26T06:21:00.039Z,6.89
2023-03-26T06:23:27.574Z,6.95
2023-03-26T06:25:57.111Z,7.05
2023-03-26T06:28:24.707Z,7.11
2023-03-26T06:30:52.838Z,7.19
2023-03-26T06:33:22.184Z,7.25
2023-03-26T06:35:51.768Z,7.29
2023-03-26T06:38:19.307Z,7.36
2023-03-26T06:40:46.848Z,7.39
2023-03-26T06:43:15.774Z,7.38
2023-03-26T06:45:43.294Z,7.38
2023-03-26T06:48:10.804Z,7.41
2023-03-26T06:50:38.328Z,7.48
2023-03-26T06:53:06.093Z,7.55
2023-03-26T06:55:33.636Z,7.63
2023-03-26T06:58:01.209Z,7.73
2023-03-26T07:00:30.532Z,7.77
2023-03-26T07:02:58.495Z,7.75
2023-03-26T07:05:26.530Z,7.78
2023-03-26T07:07:54.085Z,7.84
2023-03-26T07:10:25.058Z,7.91
2023-03-26T07:12:54.460Z,7.95
2023-03-26T07:15:22.701Z,7.98
2023-03-26T07:17:52.394Z,8.03
2023-03-26T07:20:20.863Z,8.05
2023-03-26T07:22:49.660Z,7.97
2023-03-26T07:25:19.414Z,7.85
2023-03-26T07:27:57.326Z,7.72
2023-03-26T07:30:32.056Z,7.61
2023-03-26T07:33:04.992Z,7.56
2023-03-26T07:35:40.409Z,7.53
2023-03-26T07:38:25.760Z,7.51
2023-03-26T07:41:03.876Z,7.49
2023-03-26T07:43:53.137Z,7.46
2023-03-26T07:46:26.190Z,7.36
2023-03-26T07:48:58.493Z,7.29
2023-03-26T07:51:27.023Z,7.24
2023-03-26T07:53:55.776Z,7.21
2023-03-26T07:56:32.448Z,7.24
2023-03-26T07:59:13.290Z,7.28
2023-03-26T08:01:57.073Z,7.36
2023-03-26T08:04:57.554Z,7.48
2023-03-26T08:07:40.230Z,7.56
2023-03-26T08:10:16.891Z,7.63
2023-03-26T08:12:53.800Z,7.68
2023-03-26T08:15:29.500Z,7.75
2023-03-26T08:18:06.239Z,7.80
2023-03-26T08:20:43.693Z,7.86
2023-03-26T08:23:19.537Z,7.92
2023-03-26T08:25:54.960Z,7.97
2023-03-26T08:28:38.178Z,7.97
2023-03-26T08:31:06.773Z,7.98
2023-03-26T08:33:38.361Z,8.02
2023-03-26T08:36:09.055Z,8.05
2023-03-26T08:38:36.872Z,8.09
2023-03-26T08:41:39.631Z,8.17
2023-03-26T08:44:27.224Z,8.18
2023-03-26T08:47:32.760Z,8.14
2023-03-26T08:50:44.485Z,8.13
2023-03-26T08:53:40.702Z,8.11
2023-03-26T08:56:13.161Z,8.15
2023-03-26T08:59:01.328Z,8.21
2023-03-26T09:01:50.022Z,8.25
2023-03-26T09:04:47.464Z,8.31
2023-03-26T09:07:44.253Z,8.33
2023-03-26T09:10:53.245Z,8.28
2023-03-26T09:14:02.988Z,8.27
2023-03-26T09:17:08.213Z,8.28
2023-03-26T09:20:13.657Z,8.20
2023-03-26T09:23:08.800Z,8.13
2023-03-26T09:26:04.698Z,8.09
2023-03-26T09:29:13.520Z,8.02
2023-03-26T09:32:12.804Z,8.03
2023-03-26T09:34:56.537Z,8.01
2023-03-26T09:37:29.699Z,8.04
2023-03-26T09:40:10.668Z,8.02
2023-03-26T09:42:45.732Z,8.05
2023-03-26T09:45:38.028Z,8.07
2023-03-26T09:48:30.763Z,8.08
2023-03-26T09:51:15.127Z,8.10
2023-03-26T09:54:20.031Z,8.12
2023-03-26T09:56:57.737Z,8.16
2023-03-26T09:59:50.651Z,8.21
2023-03-26T10:02:47.597Z,8.24
2023-03-26T10:05:31.414Z,8.27
2023-03-26T10:08:25.651Z,8.34
2023-03-26T10:10:58.545Z,8.42
2023-03-26T10:13:33.582Z,8.46
2023-03-26T10:16:13.082Z,8.49
2023-03-26T10:18:52.476Z,8.53
2023-03-26T10:21:35.591Z,8.58
2023-03-26T10:24:25.396Z,8.63
2023-03-26T10:27:09.731Z,8.66
2023-03-26T10:30:19.419Z,8.77
2023-03-26T10:32:59.015Z,8.87
2023-03-26T10:35:42.677Z,9.02
2023-03-26T10:38:19.462Z,9.17
2023-03-26T10:40:59.469Z,9.30
2023-03-26T10:44:19.793Z,9.43
2023-03-26T10:47:12.825Z,9.55
2023-03-26T10:50:02.013Z,9.65
2023-03-26T10:52:56.350Z,9.78
2023-03-26T10:55:32.248Z,9.84
2023-03-26T10:58:05.697Z,9.90
2023-03-26T11:00:40.728Z,9.96
2023-03-26T11:03:33.391Z,10.00
2023-03-26T11:06:15.681Z,10.05
2023-03-26T11:08:50.096Z,10.12
2023-03-26T11:11:32.224Z,10.26
2023-03-26T11:14:07.107Z,10.44
2023-03-26T11:19:22.932Z,10.95
2023-03-26T11:21:59.080Z,11.17
2023-03-26T11:24:56.231Z,11.42
2023-03-26T11:27:36.664Z,11.65
2023-03-26T11:30:15.869Z,11.85
2023-03-26T11:32:48.844Z,11.95
2023-03-26T11:35:39.818Z,11.98
2023-03-26T11:38:16.980Z,12.02
2023-03-26T11:40:50.783Z,12.03
2023-03-26T11:43:25.964Z,12.06
2023-03-26T11:45:53.993Z,12.09
2023-03-26T11:48:27.659Z,12.19
2023-03-26T11:51:01.550Z,12.26
2023-03-26T11:53:34.520Z,12.26
2023-03-26T11:56:06.228Z,12.14
2023-03-26T11:58:42.041Z,12.03
2023-03-26T12:01:15.917Z,11.97
2023-03-26T12:03:44.368Z,11.94
2023-03-26T12:06:25.682Z,11.92
2023-03-26T12:08:54.965Z,11.86
2023-03-26T12:11:28.284Z,11.84
2023-03-26T12:14:02.208Z,11.85
2023-03-26T12:16:30.056Z,11.93
2023-03-26T12:19:04.019Z,12.03
2023-03-26T12:31:19.518Z,12.73
2023-03-26T12:34:10.584Z,12.89
2023-03-26T12:36:39.124Z,12.96
2023-03-26T12:40:09.418Z,13.03
2023-03-26T12:44:48.102Z,13.08
2023-03-26T12:47:55.252Z,13.21
2023-03-26T12:49:32.460Z,13.29
2023-03-26T12:52:15.230Z,13.30
2023-03-26T12:54:54.512Z,13.26
2023-03-26T12:57:24.248Z,13.27
2023-03-26T13:00:06.625Z,13.29
2023-03-26T13:03:14.398Z,13.29
2023-03-26T13:06:02.929Z,13.30
2023-03-26T13:09:05.268Z,13.33
2023-03-26T13:11:43.586Z,13.29
2023-03-26T13:14:25.543Z,13.20
2023-03-26T13:16:56.909Z,12.97
2023-03-26T13:19:50.346Z,12.65
2023-03-26T13:30:24.178Z,11.66
2023-03-26T13:33:09.099Z,11.61
2023-03-26T13:35:47.830Z,11.62
2023-03-26T13:38:24.999Z,11.67
2023-03-26T13:41:03.132Z,11.76
2023-03-26T13:43:45.628Z,11.83
2023-03-26T13:46:24.251Z,11.84
2023-03-26T13:48:55.175Z,11.84
2023-03-26T13:51:28.173Z,11.89
2023-03-26T13:54:03.192Z,11.93
2023-03-26T13:56:37.754Z,11.95
2023-03-26T13:59:13.830Z,11.97
2023-03-26T14:01:48.705Z,11.97
2023-03-26T14:04:24.401Z,11.94
2023-03-26T14:06:58.433Z,11.97
2023-03-26T14:09:31.684Z,12.03
2023-03-26T14:12:21.281Z,12.10
2023-03-26T14:14:53.622Z,12.13
2023-03-26T14:17:26.550Z,12.14
2023-03-26T14:20:33.646Z,12.22
2023-03-26T14:23:26.686Z,12.25
2023-03-26T14:26:07.984Z,12.27
2023-03-26T14:29:09.714Z,12.29
2023-03-26T14:31:44.135Z,12.32
2023-03-26T14:34:28.934Z,12.37
2023-03-26T14:37:28.316Z,12.42
2023-03-26T14:40:27.445Z,12.49
2023-03-26T14:43:05.601Z,12.61
2023-03-26T14:45:53.487Z,12.69
2023-03-26T14:48:59.214Z,12.76
2023-03-26T14:51:40.822Z,12.80
2023-03-26T14:54:12.299Z,12.86
2023-03-26T14:57:08.688Z,12.91
2023-03-26T15:00:15.743Z,12.97
2023-03-26T15:03:34.539Z,12.98
2023-03-26T15:06:30.376Z,13.00
2023-03-26T15:09:36.204Z,13.02
2023-03-26T15:12:15.428Z,13.02
2023-03-26T15:15:10.439Z,12.98
2023-03-26T15:18:08.362Z,12.93
2023-03-26T15:21:08.319Z,12.85
2023-03-26T15:23:58.774Z,12.73
2023-03-26T15:27:10.104Z,12.67
2023-03-26T15:30:11.478Z,12.61
2023-03-26T15:33:06.421Z,12.56
2023-03-26T15:35:57.725Z,12.57
2023-03-26T15:39:14.731Z,12.54
2023-03-26T15:41:47.606Z,12.47
2023-03-26T15:44:43.829Z,12.44
2023-03-26T15:48:01.062Z,12.37
2023-03-26T15:50:41.155Z,12.27
2023-03-26T15:53:30.920Z,12.07
2023-03-26T15:56:14.961Z,11.89
2023-03-26T15:58:50.377Z,11.64
2023-03-26T16:01:33.799Z,11.32
2023-03-26T16:04:14.773Z,11.05
2023-03-26T16:06:54.962Z,10.79
2023-03-26T16:09:51.689Z,10.65
2023-03-26T16:12:32.615Z,10.62
2023-03-26T16:15:32.150Z,10.62
2023-03-26T16:18:30.711Z,10.58
2023-03-26T16:21:31.132Z,10.58
2023-03-26T16:24:20.427Z,10.63
2023-03-26T16:27:00.789Z,10.62
2023-03-26T16:29:30.513Z,10.65
2023-03-26T16:32:15.694Z,10.68
2023-03-26T16:34:50.562Z,10.70
2023-03-26T16:37:39.784Z,10.71
2023-03-26T16:40:33.219Z,10.65
2023-03-26T16:43:15.995Z,10.62
2023-03-26T16:45:51.502Z,10.62
2023-03-26T16:48:27.223Z,10.62
2023-03-26T16:50:59.869Z,10.60
2023-03-26T16:53:41.636Z,10.54
2023-03-26T16:56:17.853Z,10.53
2023-03-26T16:58:55.010Z,10.51
2023-03-26T17:01:34.224Z,10.45
2023-03-26T17:04:07.184Z,10.35
2023-03-26T17:06:56.567Z,10.23
2023-03-26T17:09:31.599Z,10.11
2023-03-26T17:12:08.631Z,10.11
2023-03-26T17:14:52.000Z,9.97
2023-03-26T17:17:36.707Z,9.90
2023-03-26T17:20:16.319Z,9.88
2023-03-26T17:22:47.470Z,9.83
2023-03-26T17:25:26.613Z,9.81
2023-03-26T17:32:43.185Z,9.74
2023-03-26T17:58:01.408Z,9.19
2023-03-26T18:03:09.344Z,8.92
2023-03-26T18:05:40.455Z,8.78
2023-03-26T18:08:29.164Z,8.63
2023-03-26T18:11:37.900Z,8.51
2023-03-26T18:14:36.058Z,8.46
2023-03-26T18:17:04.251Z,8.43
2023-03-26T18:19:47.272Z,8.44
2023-03-26T18:22:18.736Z,8.46
2023-03-26T18:24:47.480Z,8.49
2023-03-26T18:27:17.721Z,8.44
2023-03-26T18:29:46.962Z,8.44
2023-03-26T18:32:22.480Z,8.48
2023-03-26T18:34:54.223Z,8.51
2023-03-26T18:37:27.740Z,8.50
2023-03-26T18:40:02.090Z,8.48
2023-03-26T18:42:32.707Z,8.43
2023-03-26T18:45:05.231Z,8.37
2023-03-26T18:47:33.040Z,8.37
2023-03-26T18:50:01.137Z,8.35
2023-03-26T18:52:33.023Z,8.30
2023-03-26T18:55:02.884Z,8.25
2023-03-26T18:57:31.243Z,8.21
2023-03-26T19:00:15.607Z,8.20
2023-03-26T19:02:43.802Z,8.20
2023-03-26T19:05:16.541Z,8.20
2023-03-26T19:07:47.140Z,8.24
2023-03-26T19:10:21.964Z,8.28
2023-03-26T19:12:57.256Z,8.32
2023-03-26T19:15:26.496Z,8.35
2023-03-26T19:17:59.724Z,8.35
2023-03-26T19:20:30.516Z,8.34
2023-03-26T19:22:59.834Z,8.31
2023-03-26T19:25:32.355Z,8.29
2023-03-26T19:28:00.150Z,8.32
2023-03-26T19:30:32.387Z,8.35
2023-03-26T19:33:12.877Z,8.36
2023-03-26T19:35:42.990Z,8.33
2023-03-26T19:38:21.966Z,8.30
2023-03-26T19:40:50.852Z,8.25
2023-03-26T19:43:18.863Z,8.29
2023-03-26T19:46:00.250Z,8.30
2023-03-26T19:48:45.745Z,8.38
2023-03-26T19:51:20.307Z,8.41
2023-03-26T19:53:55.025Z,8.42
2023-03-26T19:56:22.898Z,8.44
2023-03-26T19:58:50.962Z,8.44
2023-03-26T20:01:20.844Z,8.39
2023-03-26T20:03:50.641Z,8.38
2023-03-26T20:06:22.131Z,8.38
2023-03-26T20:08:54.972Z,8.31
2023-03-26T20:11:24.704Z,8.31
2023-03-26T20:13:52.665Z,8.32
2023-03-26T20:16:25.078Z,8.33
2023-03-26T20:18:52.684Z,8.26
2023-03-26T20:21:20.380Z,8.22
2023-03-26T20:23:47.969Z,8.23
2023-03-26T20:26:18.541Z,8.24
2023-03-26T20:28:48.255Z,8.30
2023-03-26T20:31:19.246Z,8.35
2023-03-26T20:33:47.950Z,8.40
2023-03-26T20:36:33.242Z,8.39
2023-03-26T20:39:05.405Z,8.42
2023-03-26T20:41:35.318Z,8.41
2023-03-26T20:44:04.945Z,8.38
2023-03-26T20:46:33.115Z,8.38
2023-03-26T20:49:00.758Z,8.41
2023-03-26T20:51:29.193Z,8.44
2023-03-26T20:53:57.404Z,8.46
2023-03-26T20:56:25.285Z,8.47
2023-03-26T20:59:09.696Z,8.49
2023-03-26T21:01:38.865Z,8.46
2023-03-26T21:04:06.818Z,8.45
2023-03-26T21:06:34.437Z,8.44
2023-03-26T21:09:02.476Z,8.43
2023-03-26T21:11:41.192Z,8.46
2023-03-26T21:14:16.854Z,8.48
2023-03-26T21:16:45.020Z,8.51
2023-03-26T21:19:13.033Z,8.51
2023-03-26T21:24:33.341Z,8.50
2023-03-26T21:27:08.706Z,8.47
2023-03-26T21:29:38.228Z,8.46
2023-03-26T21:32:06.408Z,8.49
2023-03-26T21:34:35.089Z,8.51
2023-03-26T21:37:04.499Z,8.51
2023-03-26T21:39:32.425Z,8.49
2023-03-26T21:42:04.662Z,8.52
2023-03-26T21:44:34.196Z,8.53
2023-03-26T21:47:03.748Z,8.53
2023-03-26T21:49:32.018Z,8.53
2023-03-26T21:52:00.074Z,8.52
2023-03-26T21:54:29.548Z,8.48
2023-03-26T21:57:13.119Z,8.50
2023-03-26T21:59:46.545Z,8.53
2023-03-26T22:02:24.057Z,8.58
2023-03-26T22:04:57.376Z,8.55
2023-03-26T22:07:31.629Z,8.53
2023-03-26T22:09:59.174Z,8.51
2023-03-26T22:12:26.790Z,8.50
2023-03-26T22:14:54.333Z,8.49
2023-03-26T22:17:23.704Z,8.48
2023-03-26T22:19:51.319Z,8.45
2023-03-26T22:22:18.850Z,8.45
2023-03-26T22:24:46.343Z,8.43
2023-03-26T22:27:15.964Z,8.45
2023-03-26T22:29:43.542Z,8.45
2023-03-26T22:32:11.147Z,8.42
2023-03-26T22:34:41.383Z,8.42
2023-03-26T22:37:08.961Z,8.45
2023-03-26T22:39:37.777Z,8.44
2023-03-26T22:42:05.412Z,8.42
2023-03-26T22:44:32.999Z,8.42
2023-03-26T22:47:01.292Z,8.41
2023-03-26T22:49:30.304Z,8.40
2023-03-26T22:51:59.308Z,8.35
2023-03-26T22:54:27.258Z,8.25
2023-03-26T22:56:55.485Z,8.19
2023-03-26T22:59:23.103Z,8.16
2023-03-26T23:01:50.803Z,8.12
2023-03-26T23:04:31.361Z,8.08
2023-03-26T23:07:01.234Z,8.01
2023-03-26T23:09:29.401Z,7.99
2023-03-26T23:11:57.263Z,7.97
2023-03-26T23:14:24.899Z,7.98
2023-03-26T23:16:52.509Z,7.98
2023-03-26T23:19:20.090Z,7.95
2023-03-26T23:21:47.644Z,7.92
2023-03-26T23:24:16.839Z,7.91
2023-03-26T23:26:50.610Z,7.90
2023-03-26T23:29:18.919Z,7.88
2023-03-26T23:31:46.566Z,7.92
2023-03-26T23:34:15.196Z,7.92
2023-03-26T23:36:44.646Z,7.88
2023-03-26T23:39:12.190Z,7.88
2023-03-26T23:41:41.095Z,7.88
2023-03-26T23:44:14.531Z,7.87
2023-03-26T23:46:42.688Z,7.87
2023-03-26T23:49:10.312Z,7.87
2023-03-26T23:51:37.868Z,7.87
2023-03-26T23:54:06.622Z,7.86
2023-03-26T23:56:34.191Z,7.89
2023-03-26T23:59:03.564Z,7.92
